sensor_id;sensor_type;location;lat;lon;timestamp;temperature;humidity
31271;DHT22;17904;47.420;9.310;2022-10-22T00:00:30;12.70;99.90
31271;DHT22;17904;47.420;9.310;2022-10-22T00:02:57;12.70;99.90
31271;DHT22;17904;47.420;9.310;2022-10-22T00:05:24;12.70;99.90
31271;DHT22;17904;47.420;9.310;2022-10-22T00:07:51;12.70;99.90
31271;DHT22;17904;47.420;9.310;2022-10-22T00:10:18;12.70;99.90
31271;DHT22;17904;47.420;9.310;2022-10-22T00:12:45;12.70;99.90
31271;DHT22;17904;47.420;9.310;2022-10-22T00:15:12;12.70;99.90
31271;DHT22;17904;47.420;9.310;2022-10-22T00:17:39;12.70;99.90
31271;DHT22;17904;47.420;9.310;2022-10-22T00:20:07;12.70;99.90
31271;DHT22;17904;47.420;9.310;2022-10-22T00:22:34;12.70;99.90
31271;DHT22;17904;47.420;9.310;2022-10-22T00:25:01;12.60;99.90
31271;DHT22;17904;47.420;9.310;2022-10-22T00:27:28;12.50;99.90
31271;DHT22;17904;47.420;9.310;2022-10-22T00:29:55;12.40;99.90
31271;DHT22;17904;47.420;9.310;2022-10-22T00:32:21;12.40;99.90
31271;DHT22;17904;47.420;9.310;2022-10-22T00:34:48;12.30;99.90
31271;DHT22;17904;47.420;9.310;2022-10-22T00:37:15;12.10;99.90
31271;DHT22;17904;47.420;9.310;2022-10-22T00:39:42;12.10;99.90
31271;DHT22;17904;47.420;9.310;2022-10-22T00:42:19;12.00;99.90
31271;DHT22;17904;47.420;9.310;2022-10-22T00:45:05;11.90;99.90
31271;DHT22;17904;47.420;9.310;2022-10-22T00:50:28;11.70;99.90
31271;DHT22;17904;47.420;9.310;2022-10-22T00:52:57;11.60;99.90
31271;DHT22;17904;47.420;9.310;2022-10-22T00:55:25;11.60;99.90
31271;DHT22;17904;47.420;9.310;2022-10-22T00:57:55;11.60;99.90
31271;DHT22;17904;47.420;9.310;2022-10-22T01:00:23;11.60;99.90
31271;DHT22;17904;47.420;9.310;2022-10-22T01:02:51;11.50;99.90
31271;DHT22;17904;47.420;9.310;2022-10-22T01:05:19;11.50;99.90
31271;DHT22;17904;47.420;9.310;2022-10-22T01:07:48;11.50;99.90
31271;DHT22;17904;47.420;9.310;2022-10-22T01:13:28;11.50;99.90
31271;DHT22;17904;47.420;9.310;2022-10-22T01:16:14;11.50;99.90
31271;DHT22;17904;47.420;9.310;2022-10-22T01:18:59;11.40;99.90
31271;DHT22;17904;47.420;9.310;2022-10-22T01:21:42;11.40;99.90
31271;DHT22;17904;47.420;9.310;2022-10-22T01:25:24;11.50;99.90
31271;DHT22;17904;47.420;9.310;2022-10-22T01:30:03;11.50;99.90
31271;DHT22;17904;47.420;9.310;2022-10-22T01:32:48;11.50;99.90
31271;DHT22;17904;47.420;9.310;2022-10-22T01:35:20;11.40;99.90
31271;DHT22;17904;47.420;9.310;2022-10-22T01:37:52;11.40;99.90
31271;DHT22;17904;47.420;9.310;2022-10-22T01:40:20;11.40;99.90
31271;DHT22;17904;47.420;9.310;2022-10-22T01:43:01;11.50;99.90
31271;DHT22;17904;47.420;9.310;2022-10-22T01:45:41;11.40;99.90
31271;DHT22;17904;47.420;9.310;2022-10-22T01:51:00;11.50;99.90
31271;DHT22;17904;47.420;9.310;2022-10-22T01:53:48;11.40;99.90
31271;DHT22;17904;47.420;9.310;2022-10-22T01:58:57;11.40;99.90
31271;DHT22;17904;47.420;9.310;2022-10-22T02:01:57;11.50;99.90
31271;DHT22;17904;47.420;9.310;2022-10-22T02:04:29;11.40;99.90
31271;DHT22;17904;47.420;9.310;2022-10-22T02:07:02;11.50;99.90
31271;DHT22;17904;47.420;9.310;2022-10-22T02:09:31;11.40;99.90
31271;DHT22;17904;47.420;9.310;2022-10-22T02:12:02;11.40;99.90
31271;DHT22;17904;47.420;9.310;2022-10-22T02:14:33;11.40;99.90
31271;DHT22;17904;47.420;9.310;2022-10-22T02:17:01;11.40;99.90
31271;DHT22;17904;47.420;9.310;2022-10-22T02:19:40;11.40;99.90
31271;DHT22;17904;47.420;9.310;2022-10-22T02:22:10;11.40;99.90
31271;DHT22;17904;47.420;9.310;2022-10-22T02:24:37;11.30;99.90
31271;DHT22;17904;47.420;9.310;2022-10-22T02:27:21;11.30;99.90
31271;DHT22;17904;47.420;9.310;2022-10-22T02:32:42;11.30;99.90
31271;DHT22;17904;47.420;9.310;2022-10-22T02:35:14;11.30;99.90
31271;DHT22;17904;47.420;9.310;2022-10-22T02:37:42;11.30;99.90
31271;DHT22;17904;47.420;9.310;2022-10-22T02:40:09;11.30;99.90
31271;DHT22;17904;47.420;9.310;2022-10-22T02:42:38;11.20;99.90
31271;DHT22;17904;47.420;9.310;2022-10-22T02:45:07;11.20;99.90
31271;DHT22;17904;47.420;9.310;2022-10-22T02:47:34;11.20;99.90
31271;DHT22;17904;47.420;9.310;2022-10-22T02:50:01;11.20;99.90
31271;DHT22;17904;47.420;9.310;2022-10-22T02:52:33;11.20;99.90
31271;DHT22;17904;47.420;9.310;2022-10-22T02:55:00;11.20;99.90
31271;DHT22;17904;47.420;9.310;2022-10-22T02:57:27;11.20;99.90
31271;DHT22;17904;47.420;9.310;2022-10-22T02:59:54;11.20;99.90
31271;DHT22;17904;47.420;9.310;2022-10-22T03:02:21;11.20;99.90
31271;DHT22;17904;47.420;9.310;2022-10-22T03:04:48;11.20;99.90
31271;DHT22;17904;47.420;9.310;2022-10-22T03:07:14;11.20;99.90
31271;DHT22;17904;47.420;9.310;2022-10-22T03:09:41;11.10;99.90
31271;DHT22;17904;47.420;9.310;2022-10-22T03:12:08;11.20;99.90
31271;DHT22;17904;47.420;9.310;2022-10-22T03:14:35;11.20;99.90
31271;DHT22;17904;47.420;9.310;2022-10-22T03:17:02;11.20;99.90
31271;DHT22;17904;47.420;9.310;2022-10-22T03:19:28;11.20;99.90
31271;DHT22;17904;47.420;9.310;2022-10-22T03:21:58;11.20;99.90
31271;DHT22;17904;47.420;9.310;2022-10-22T03:24:30;11.20;99.90
31271;DHT22;17904;47.420;9.310;2022-10-22T03:26:59;11.20;99.90
31271;DHT22;17904;47.420;9.310;2022-10-22T03:29:26;11.20;99.90
31271;DHT22;17904;47.420;9.310;2022-10-22T03:31:53;11.20;99.90
31271;DHT22;17904;47.420;9.310;2022-10-22T03:34:21;11.30;99.90
31271;DHT22;17904;47.420;9.310;2022-10-22T03:36:48;11.20;99.90
31271;DHT22;17904;47.420;9.310;2022-10-22T03:39:16;11.30;99.90
31271;DHT22;17904;47.420;9.310;2022-10-22T03:41:44;11.30;99.90
31271;DHT22;17904;47.420;9.310;2022-10-22T03:44:11;11.30;99.90
31271;DHT22;17904;47.420;9.310;2022-10-22T03:46:38;11.30;99.90
31271;DHT22;17904;47.420;9.310;2022-10-22T03:49:05;11.30;99.90
31271;DHT22;17904;47.420;9.310;2022-10-22T03:51:32;11.30;99.90
31271;DHT22;17904;47.420;9.310;2022-10-22T03:53:59;11.30;99.90
31271;DHT22;17904;47.420;9.310;2022-10-22T03:56:26;11.30;99.90
31271;DHT22;17904;47.420;9.310;2022-10-22T03:58:57;11.40;99.90
31271;DHT22;17904;47.420;9.310;2022-10-22T04:01:25;11.40;99.90
31271;DHT22;17904;47.420;9.310;2022-10-22T04:03:53;11.40;99.90
31271;DHT22;17904;47.420;9.310;2022-10-22T04:06:20;11.40;99.90
31271;DHT22;17904;47.420;9.310;2022-10-22T04:08:47;11.40;99.90
31271;DHT22;17904;47.420;9.310;2022-10-22T04:11:15;11.40;99.90
31271;DHT22;17904;47.420;9.310;2022-10-22T04:13:42;11.40;99.90
31271;DHT22;17904;47.420;9.310;2022-10-22T04:16:20;11.40;99.90
31271;DHT22;17904;47.420;9.310;2022-10-22T04:18:49;11.40;99.90
31271;DHT22;17904;47.420;9.310;2022-10-22T04:21:18;11.40;99.90
31271;DHT22;17904;47.420;9.310;2022-10-22T04:23:47;11.40;99.90
31271;DHT22;17904;47.420;9.310;2022-10-22T04:26:15;11.40;99.90
31271;DHT22;17904;47.420;9.310;2022-10-22T04:28:43;11.40;99.90
31271;DHT22;17904;47.420;9.310;2022-10-22T04:31:14;11.40;99.90
31271;DHT22;17904;47.420;9.310;2022-10-22T04:33:42;11.40;99.90
31271;DHT22;17904;47.420;9.310;2022-10-22T04:36:14;11.40;99.90
31271;DHT22;17904;47.420;9.310;2022-10-22T04:38:43;11.40;99.90
31271;DHT22;17904;47.420;9.310;2022-10-22T04:41:13;11.40;99.90
31271;DHT22;17904;47.420;9.310;2022-10-22T04:43:40;11.50;99.90
31271;DHT22;17904;47.420;9.310;2022-10-22T04:46:09;11.40;99.90
31271;DHT22;17904;47.420;9.310;2022-10-22T04:48:38;11.40;99.90
31271;DHT22;17904;47.420;9.310;2022-10-22T04:51:07;11.40;99.90
31271;DHT22;17904;47.420;9.310;2022-10-22T04:53:34;11.40;99.90
31271;DHT22;17904;47.420;9.310;2022-10-22T04:56:19;11.40;99.90
31271;DHT22;17904;47.420;9.310;2022-10-22T04:58:47;11.30;99.90
31271;DHT22;17904;47.420;9.310;2022-10-22T05:01:18;11.40;99.90
31271;DHT22;17904;47.420;9.310;2022-10-22T05:03:47;11.40;99.90
31271;DHT22;17904;47.420;9.310;2022-10-22T05:06:15;11.40;99.90
31271;DHT22;17904;47.420;9.310;2022-10-22T05:08:42;11.40;99.90
31271;DHT22;17904;47.420;9.310;2022-10-22T05:11:15;11.30;99.90
31271;DHT22;17904;47.420;9.310;2022-10-22T05:13:42;11.40;99.90
31271;DHT22;17904;47.420;9.310;2022-10-22T05:16:09;11.40;99.90
31271;DHT22;17904;47.420;9.310;2022-10-22T05:18:36;11.40;99.90
31271;DHT22;17904;47.420;9.310;2022-10-22T05:21:07;11.40;99.90
31271;DHT22;17904;47.420;9.310;2022-10-22T05:23:35;11.40;99.90
31271;DHT22;17904;47.420;9.310;2022-10-22T05:26:03;11.40;99.90
31271;DHT22;17904;47.420;9.310;2022-10-22T05:28:30;11.40;99.90
31271;DHT22;17904;47.420;9.310;2022-10-22T05:30:59;11.40;99.90
31271;DHT22;17904;47.420;9.310;2022-10-22T05:33:27;11.40;99.90
31271;DHT22;17904;47.420;9.310;2022-10-22T05:35:55;11.40;99.90
31271;DHT22;17904;47.420;9.310;2022-10-22T05:38:22;11.40;99.90
31271;DHT22;17904;47.420;9.310;2022-10-22T05:40:59;11.40;99.90
31271;DHT22;17904;47.420;9.310;2022-10-22T05:43:26;11.40;99.90
31271;DHT22;17904;47.420;9.310;2022-10-22T05:45:53;11.40;99.90
31271;DHT22;17904;47.420;9.310;2022-10-22T05:48:21;11.40;99.90
31271;DHT22;17904;47.420;9.310;2022-10-22T05:50:48;11.40;99.90
31271;DHT22;17904;47.420;9.310;2022-10-22T05:53:17;11.40;99.90
31271;DHT22;17904;47.420;9.310;2022-10-22T05:55:44;11.40;99.90
31271;DHT22;17904;47.420;9.310;2022-10-22T05:58:12;11.40;99.90
31271;DHT22;17904;47.420;9.310;2022-10-22T06:00:39;11.40;99.90
31271;DHT22;17904;47.420;9.310;2022-10-22T06:03:06;11.40;99.90
31271;DHT22;17904;47.420;9.310;2022-10-22T06:05:35;11.40;99.90
31271;DHT22;17904;47.420;9.310;2022-10-22T06:08:03;11.40;99.90
31271;DHT22;17904;47.420;9.310;2022-10-22T06:10:30;11.40;99.90
31271;DHT22;17904;47.420;9.310;2022-10-22T06:12:57;11.40;99.90
31271;DHT22;17904;47.420;9.310;2022-10-22T06:15:24;11.40;99.90
31271;DHT22;17904;47.420;9.310;2022-10-22T06:17:51;11.40;99.90
31271;DHT22;17904;47.420;9.310;2022-10-22T06:20:18;11.40;99.90
31271;DHT22;17904;47.420;9.310;2022-10-22T06:22:45;11.40;99.90
31271;DHT22;17904;47.420;9.310;2022-10-22T06:25:14;11.40;99.90
31271;DHT22;17904;47.420;9.310;2022-10-22T06:27:41;11.40;99.90
31271;DHT22;17904;47.420;9.310;2022-10-22T06:30:09;11.50;99.90
31271;DHT22;17904;47.420;9.310;2022-10-22T06:32:36;11.50;99.90
31271;DHT22;17904;47.420;9.310;2022-10-22T06:35:03;11.50;99.90
31271;DHT22;17904;47.420;9.310;2022-10-22T06:37:30;11.50;99.90
31271;DHT22;17904;47.420;9.310;2022-10-22T06:39:57;11.50;99.90
31271;DHT22;17904;47.420;9.310;2022-10-22T06:42:24;11.50;99.90
31271;DHT22;17904;47.420;9.310;2022-10-22T06:44:51;11.60;99.90
31271;DHT22;17904;47.420;9.310;2022-10-22T06:47:19;11.60;99.90
31271;DHT22;17904;47.420;9.310;2022-10-22T06:49:47;11.60;99.90
31271;DHT22;17904;47.420;9.310;2022-10-22T06:52:15;11.60;99.90
31271;DHT22;17904;47.420;9.310;2022-10-22T06:54:42;11.70;99.90
31271;DHT22;17904;47.420;9.310;2022-10-22T06:57:09;11.70;99.90
31271;DHT22;17904;47.420;9.310;2022-10-22T06:59:36;11.70;99.90
31271;DHT22;17904;47.420;9.310;2022-10-22T07:02:03;11.80;99.90
31271;DHT22;17904;47.420;9.310;2022-10-22T07:04:30;11.80;99.90
31271;DHT22;17904;47.420;9.310;2022-10-22T07:06:57;11.80;99.90
31271;DHT22;17904;47.420;9.310;2022-10-22T07:09:24;11.80;99.90
31271;DHT22;17904;47.420;9.310;2022-10-22T07:11:51;11.80;99.90
31271;DHT22;17904;47.420;9.310;2022-10-22T07:14:17;11.80;99.90
31271;DHT22;17904;47.420;9.310;2022-10-22T07:16:45;11.80;99.90
31271;DHT22;17904;47.420;9.310;2022-10-22T07:19:13;11.80;99.90
31271;DHT22;17904;47.420;9.310;2022-10-22T07:21:40;11.80;99.90
31271;DHT22;17904;47.420;9.310;2022-10-22T07:24:07;11.80;99.90
31271;DHT22;17904;47.420;9.310;2022-10-22T07:26:34;11.80;99.90
31271;DHT22;17904;47.420;9.310;2022-10-22T07:29:03;11.90;99.90
31271;DHT22;17904;47.420;9.310;2022-10-22T07:31:30;11.90;99.90
31271;DHT22;17904;47.420;9.310;2022-10-22T07:33:57;11.90;99.90
31271;DHT22;17904;47.420;9.310;2022-10-22T07:36:24;11.90;99.90
31271;DHT22;17904;47.420;9.310;2022-10-22T07:38:56;12.00;99.90
31271;DHT22;17904;47.420;9.310;2022-10-22T07:41:24;12.00;99.90
31271;DHT22;17904;47.420;9.310;2022-10-22T07:43:51;12.00;99.90
31271;DHT22;17904;47.420;9.310;2022-10-22T07:46:18;12.00;99.90
31271;DHT22;17904;47.420;9.310;2022-10-22T07:48:45;12.10;99.90
31271;DHT22;17904;47.420;9.310;2022-10-22T07:51:12;12.10;99.90
31271;DHT22;17904;47.420;9.310;2022-10-22T07:53:40;12.10;99.90
31271;DHT22;17904;47.420;9.310;2022-10-22T07:56:08;12.10;99.90
31271;DHT22;17904;47.420;9.310;2022-10-22T07:58:35;12.10;99.90
31271;DHT22;17904;47.420;9.310;2022-10-22T08:01:03;12.10;99.90
31271;DHT22;17904;47.420;9.310;2022-10-22T08:03:33;12.20;99.90
31271;DHT22;17904;47.420;9.310;2022-10-22T08:06:00;12.20;99.90
31271;DHT22;17904;47.420;9.310;2022-10-22T08:08:27;12.30;99.90
31271;DHT22;17904;47.420;9.310;2022-10-22T08:10:59;12.30;99.90
31271;DHT22;17904;47.420;9.310;2022-10-22T08:13:26;12.30;99.90
31271;DHT22;17904;47.420;9.310;2022-10-22T08:15:55;12.40;99.90
31271;DHT22;17904;47.420;9.310;2022-10-22T08:18:23;12.50;99.90
31271;DHT22;17904;47.420;9.310;2022-10-22T08:20:51;12.50;99.90
31271;DHT22;17904;47.420;9.310;2022-10-22T08:23:18;12.60;99.90
31271;DHT22;17904;47.420;9.310;2022-10-22T08:25:52;12.70;99.90
31271;DHT22;17904;47.420;9.310;2022-10-22T08:28:19;12.90;99.90
31271;DHT22;17904;47.420;9.310;2022-10-22T08:30:48;13.10;99.90
31271;DHT22;17904;47.420;9.310;2022-10-22T08:33:15;13.30;99.90
31271;DHT22;17904;47.420;9.310;2022-10-22T08:35:47;13.50;99.90
31271;DHT22;17904;47.420;9.310;2022-10-22T08:38:14;13.70;99.90
31271;DHT22;17904;47.420;9.310;2022-10-22T08:40:41;13.80;99.90
31271;DHT22;17904;47.420;9.310;2022-10-22T08:48:53;14.60;99.90
31271;DHT22;17904;47.420;9.310;2022-10-22T08:51:25;15.00;99.90
31271;DHT22;17904;47.420;9.310;2022-10-22T08:54:05;15.40;99.90
31271;DHT22;17904;47.420;9.310;2022-10-22T08:56:35;15.90;99.90
31271;DHT22;17904;47.420;9.310;2022-10-22T08:59:19;16.40;99.90
31271;DHT22;17904;47.420;9.310;2022-10-22T09:01:50;16.90;99.90
31271;DHT22;17904;47.420;9.310;2022-10-22T09:04:43;17.40;99.90
31271;DHT22;17904;47.420;9.310;2022-10-22T09:07:11;17.90;99.90
31271;DHT22;17904;47.420;9.310;2022-10-22T09:09:42;18.50;99.90
31271;DHT22;17904;47.420;9.310;2022-10-22T09:12:16;18.90;99.90
31271;DHT22;17904;47.420;9.310;2022-10-22T09:14:46;19.30;99.90
31271;DHT22;17904;47.420;9.310;2022-10-22T09:17:28;19.40;99.90
31271;DHT22;17904;47.420;9.310;2022-10-22T09:20:31;19.50;99.90
31271;DHT22;17904;47.420;9.310;2022-10-22T09:25:45;19.10;99.90
31271;DHT22;17904;47.420;9.310;2022-10-22T09:28:14;18.90;99.90
31271;DHT22;17904;47.420;9.310;2022-10-22T09:30:42;18.80;99.90
31271;DHT22;17904;47.420;9.310;2022-10-22T09:35:45;18.80;99.90
31271;DHT22;17904;47.420;9.310;2022-10-22T09:38:15;18.80;99.90
31271;DHT22;17904;47.420;9.310;2022-10-22T09:40:50;19.00;99.90
31271;DHT22;17904;47.420;9.310;2022-10-22T09:43:17;19.10;99.90
31271;DHT22;17904;47.420;9.310;2022-10-22T09:45:45;19.20;99.90
31271;DHT22;17904;47.420;9.310;2022-10-22T09:50:44;19.60;99.90
31271;DHT22;17904;47.420;9.310;2022-10-22T09:53:35;19.80;99.90
31271;DHT22;17904;47.420;9.310;2022-10-22T09:56:09;19.90;99.90
31271;DHT22;17904;47.420;9.310;2022-10-22T09:58:44;20.10;99.90
31271;DHT22;17904;47.420;9.310;2022-10-22T10:01:25;20.20;99.90
31271;DHT22;17904;47.420;9.310;2022-10-22T10:03:52;20.50;99.90
31271;DHT22;17904;47.420;9.310;2022-10-22T10:06:21;20.80;99.90
31271;DHT22;17904;47.420;9.310;2022-10-22T10:08:48;20.90;99.90
31271;DHT22;17904;47.420;9.310;2022-10-22T10:14:31;21.30;97.20
31271;DHT22;17904;47.420;9.310;2022-10-22T10:20:21;21.40;99.90
31271;DHT22;17904;47.420;9.310;2022-10-22T10:23:25;21.60;98.30
31271;DHT22;17904;47.420;9.310;2022-10-22T10:34:45;22.60;87.80
31271;DHT22;17904;47.420;9.310;2022-10-22T10:37:25;22.90;92.10
31271;DHT22;17904;47.420;9.310;2022-10-22T10:42:47;23.00;81.70
31271;DHT22;17904;47.420;9.310;2022-10-22T10:54:25;22.40;78.90
31271;DHT22;17904;47.420;9.310;2022-10-22T10:59:42;22.60;85.40
31271;DHT22;17904;47.420;9.310;2022-10-22T11:05:27;22.60;74.80
31271;DHT22;17904;47.420;9.310;2022-10-22T11:08:04;22.40;76.30
31271;DHT22;17904;47.420;9.310;2022-10-22T11:17:07;22.20;79.90
31271;DHT22;17904;47.420;9.310;2022-10-22T11:19:44;22.30;74.00
31271;DHT22;17904;47.420;9.310;2022-10-22T11:25:33;22.50;79.50
31271;DHT22;17904;47.420;9.310;2022-10-22T11:28:27;22.60;73.30
31271;DHT22;17904;47.420;9.310;2022-10-22T11:31:03;22.80;74.10
31271;DHT22;17904;47.420;9.310;2022-10-22T11:36:11;23.20;71.90
31271;DHT22;17904;47.420;9.310;2022-10-22T11:38:39;23.10;71.00
31271;DHT22;17904;47.420;9.310;2022-10-22T11:41:17;23.00;71.70
31271;DHT22;17904;47.420;9.310;2022-10-22T11:46:44;23.20;76.00
31271;DHT22;17904;47.420;9.310;2022-10-22T11:51:41;23.10;78.70
31271;DHT22;17904;47.420;9.310;2022-10-22T11:54:31;22.90;76.10
31271;DHT22;17904;47.420;9.310;2022-10-22T12:05:18;21.90;90.10
31271;DHT22;17904;47.420;9.310;2022-10-22T12:08:00;22.00;88.20
31271;DHT22;17904;47.420;9.310;2022-10-22T12:10:35;22.00;84.80
31271;DHT22;17904;47.420;9.310;2022-10-22T12:13:21;22.00;84.70
31271;DHT22;17904;47.420;9.310;2022-10-22T12:15:53;22.10;87.70
31271;DHT22;17904;47.420;9.310;2022-10-22T12:18:34;22.20;88.30
31271;DHT22;17904;47.420;9.310;2022-10-22T12:21:04;22.50;91.00
31271;DHT22;17904;47.420;9.310;2022-10-22T12:23:34;22.90;92.30
31271;DHT22;17904;47.420;9.310;2022-10-22T12:26:03;23.20;89.40
31271;DHT22;17904;47.420;9.310;2022-10-22T12:28:40;23.40;86.60
31271;DHT22;17904;47.420;9.310;2022-10-22T12:31:14;23.60;76.20
31271;DHT22;17904;47.420;9.310;2022-10-22T12:33:42;23.50;77.60
31271;DHT22;17904;47.420;9.310;2022-10-22T12:36:18;23.60;81.50
31271;DHT22;17904;47.420;9.310;2022-10-22T12:38:46;23.70;80.00
31271;DHT22;17904;47.420;9.310;2022-10-22T12:41:14;23.70;77.80
31271;DHT22;17904;47.420;9.310;2022-10-22T12:43:41;23.80;74.20
31271;DHT22;17904;47.420;9.310;2022-10-22T12:46:11;24.00;76.00
31271;DHT22;17904;47.420;9.310;2022-10-22T12:48:42;24.10;73.00
31271;DHT22;17904;47.420;9.310;2022-10-22T12:51:16;24.20;71.90
31271;DHT22;17904;47.420;9.310;2022-10-22T12:53:48;24.40;71.90
31271;DHT22;17904;47.420;9.310;2022-10-22T12:56:22;24.50;72.80
31271;DHT22;17904;47.420;9.310;2022-10-22T12:59:14;24.60;73.00
31271;DHT22;17904;47.420;9.310;2022-10-22T13:01:43;24.60;65.20
31271;DHT22;17904;47.420;9.310;2022-10-22T13:09:38;24.60;64.70
31271;DHT22;17904;47.420;9.310;2022-10-22T13:12:08;24.80;63.00
31271;DHT22;17904;47.420;9.310;2022-10-22T13:14:45;24.90;61.80
31271;DHT22;17904;47.420;9.310;2022-10-22T13:17:15;24.90;62.20
31271;DHT22;17904;47.420;9.310;2022-10-22T13:19:48;24.80;60.10
31271;DHT22;17904;47.420;9.310;2022-10-22T13:24:52;24.50;65.70
31271;DHT22;17904;47.420;9.310;2022-10-22T13:27:20;24.50;65.70
31271;DHT22;17904;47.420;9.310;2022-10-22T13:29:47;24.40;65.90
31271;DHT22;17904;47.420;9.310;2022-10-22T13:32:33;24.20;64.90
31271;DHT22;17904;47.420;9.310;2022-10-22T13:35:01;24.20;66.20
31271;DHT22;17904;47.420;9.310;2022-10-22T13:37:31;24.20;66.30
31271;DHT22;17904;47.420;9.310;2022-10-22T13:40:00;24.20;65.50
31271;DHT22;17904;47.420;9.310;2022-10-22T13:42:27;24.30;68.80
31271;DHT22;17904;47.420;9.310;2022-10-22T13:44:54;24.40;69.20
31271;DHT22;17904;47.420;9.310;2022-10-22T13:47:26;24.50;68.30
31271;DHT22;17904;47.420;9.310;2022-10-22T13:49:56;24.60;65.80
31271;DHT22;17904;47.420;9.310;2022-10-22T13:55:00;24.60;61.90
31271;DHT22;17904;47.420;9.310;2022-10-22T13:57:27;24.50;62.50
31271;DHT22;17904;47.420;9.310;2022-10-22T13:59:54;24.40;62.10
31271;DHT22;17904;47.420;9.310;2022-10-22T14:02:21;24.30;61.30
31271;DHT22;17904;47.420;9.310;2022-10-22T14:04:50;24.20;63.90
31271;DHT22;17904;47.420;9.310;2022-10-22T14:07:17;24.20;66.00
31271;DHT22;17904;47.420;9.310;2022-10-22T14:09:45;24.20;69.10
31271;DHT22;17904;47.420;9.310;2022-10-22T14:12:15;24.30;70.10
31271;DHT22;17904;47.420;9.310;2022-10-22T14:14:43;24.30;71.00
31271;DHT22;17904;47.420;9.310;2022-10-22T14:17:14;24.30;73.00
31271;DHT22;17904;47.420;9.310;2022-10-22T14:19:44;24.30;70.60
31271;DHT22;17904;47.420;9.310;2022-10-22T14:22:15;24.30;72.50
31271;DHT22;17904;47.420;9.310;2022-10-22T14:24:43;24.20;72.50
31271;DHT22;17904;47.420;9.310;2022-10-22T14:27:13;24.30;72.50
31271;DHT22;17904;47.420;9.310;2022-10-22T14:29:41;24.30;73.00
31271;DHT22;17904;47.420;9.310;2022-10-22T14:32:12;24.20;74.90
31271;DHT22;17904;47.420;9.310;2022-10-22T14:34:41;24.10;76.80
31271;DHT22;17904;47.420;9.310;2022-10-22T14:37:26;23.90;76.30
31271;DHT22;17904;47.420;9.310;2022-10-22T14:39:54;23.50;77.70
31271;DHT22;17904;47.420;9.310;2022-10-22T14:42:28;23.30;79.20
31271;DHT22;17904;47.420;9.310;2022-10-22T14:44:55;23.20;82.50
31271;DHT22;17904;47.420;9.310;2022-10-22T14:47:22;23.10;84.50
31271;DHT22;17904;47.420;9.310;2022-10-22T14:49:49;23.10;86.60
31271;DHT22;17904;47.420;9.310;2022-10-22T14:52:17;22.90;89.20
31271;DHT22;17904;47.420;9.310;2022-10-22T14:54:45;22.50;92.30
31271;DHT22;17904;47.420;9.310;2022-10-22T14:57:14;22.00;96.90
31271;DHT22;17904;47.420;9.310;2022-10-22T14:59:42;21.30;99.90
31271;DHT22;17904;47.420;9.310;2022-10-22T15:02:12;20.70;99.90
31271;DHT22;17904;47.420;9.310;2022-10-22T15:04:39;20.10;99.90
31271;DHT22;17904;47.420;9.310;2022-10-22T15:07:06;19.60;99.90
31271;DHT22;17904;47.420;9.310;2022-10-22T15:09:33;19.30;99.90
31271;DHT22;17904;47.420;9.310;2022-10-22T15:12:00;19.00;99.90
31271;DHT22;17904;47.420;9.310;2022-10-22T15:14:27;18.60;99.90
31271;DHT22;17904;47.420;9.310;2022-10-22T15:16:54;18.40;99.90
31271;DHT22;17904;47.420;9.310;2022-10-22T15:19:21;18.10;99.90
31271;DHT22;17904;47.420;9.310;2022-10-22T15:21:49;17.80;99.90
31271;DHT22;17904;47.420;9.310;2022-10-22T15:24:17;17.40;99.90
31271;DHT22;17904;47.420;9.310;2022-10-22T15:26:44;17.10;99.90
31271;DHT22;17904;47.420;9.310;2022-10-22T15:29:12;16.80;99.90
31271;DHT22;17904;47.420;9.310;2022-10-22T15:31:49;16.60;99.90
31271;DHT22;17904;47.420;9.310;2022-10-22T15:34:21;16.40;99.90
31271;DHT22;17904;47.420;9.310;2022-10-22T15:36:49;16.20;99.90
31271;DHT22;17904;47.420;9.310;2022-10-22T15:39:16;16.10;99.90
31271;DHT22;17904;47.420;9.310;2022-10-22T15:41:43;15.90;99.90
31271;DHT22;17904;47.420;9.310;2022-10-22T15:44:15;15.80;99.90
31271;DHT22;17904;47.420;9.310;2022-10-22T15:46:42;15.70;99.90
31271;DHT22;17904;47.420;9.310;2022-10-22T15:49:10;15.50;99.90
31271;DHT22;17904;47.420;9.310;2022-10-22T15:51:37;15.40;99.90
31271;DHT22;17904;47.420;9.310;2022-10-22T15:54:04;15.30;99.90
31271;DHT22;17904;47.420;9.310;2022-10-22T15:56:35;15.20;99.90
31271;DHT22;17904;47.420;9.310;2022-10-22T15:59:02;15.10;99.90
31271;DHT22;17904;47.420;9.310;2022-10-22T16:01:31;15.10;99.90
31271;DHT22;17904;47.420;9.310;2022-10-22T16:03:59;15.00;99.90
31271;DHT22;17904;47.420;9.310;2022-10-22T16:06:44;14.90;99.90
31271;DHT22;17904;47.420;9.310;2022-10-22T16:09:17;14.80;99.90
31271;DHT22;17904;47.420;9.310;2022-10-22T16:11:45;14.70;99.90
31271;DHT22;17904;47.420;9.310;2022-10-22T16:14:13;14.60;99.90
31271;DHT22;17904;47.420;9.310;2022-10-22T16:16:43;14.60;99.90
31271;DHT22;17904;47.420;9.310;2022-10-22T16:19:11;14.50;99.90
31271;DHT22;17904;47.420;9.310;2022-10-22T16:21:38;14.50;99.90
31271;DHT22;17904;47.420;9.310;2022-10-22T16:24:07;14.40;99.90
31271;DHT22;17904;47.420;9.310;2022-10-22T16:26:34;14.40;99.90
31271;DHT22;17904;47.420;9.310;2022-10-22T16:29:03;14.30;99.90
31271;DHT22;17904;47.420;9.310;2022-10-22T16:31:30;14.30;99.90
31271;DHT22;17904;47.420;9.310;2022-10-22T16:33:57;14.20;99.90
31271;DHT22;17904;47.420;9.310;2022-10-22T16:36:24;14.20;99.90
31271;DHT22;17904;47.420;9.310;2022-10-22T16:38:52;14.10;99.90
31271;DHT22;17904;47.420;9.310;2022-10-22T16:41:21;14.10;99.90
31271;DHT22;17904;47.420;9.310;2022-10-22T16:43:50;14.10;99.90
31271;DHT22;17904;47.420;9.310;2022-10-22T16:46:19;14.00;99.90
31271;DHT22;17904;47.420;9.310;2022-10-22T16:48:48;13.90;99.90
31271;DHT22;17904;47.420;9.310;2022-10-22T16:51:21;13.80;99.90
31271;DHT22;17904;47.420;9.310;2022-10-22T16:53:51;13.80;99.90
31271;DHT22;17904;47.420;9.310;2022-10-22T16:56:18;13.70;99.90
31271;DHT22;17904;47.420;9.310;2022-10-22T16:58:48;13.70;99.90
31271;DHT22;17904;47.420;9.310;2022-10-22T17:01:17;13.60;99.90
31271;DHT22;17904;47.420;9.310;2022-10-22T17:03:45;13.60;99.90
31271;DHT22;17904;47.420;9.310;2022-10-22T17:06:12;13.50;99.90
31271;DHT22;17904;47.420;9.310;2022-10-22T17:08:40;13.50;99.90
31271;DHT22;17904;47.420;9.310;2022-10-22T17:11:13;13.40;99.90
31271;DHT22;17904;47.420;9.310;2022-10-22T17:13:45;13.40;99.90
31271;DHT22;17904;47.420;9.310;2022-10-22T17:16:15;13.40;99.90
31271;DHT22;17904;47.420;9.310;2022-10-22T17:18:43;13.40;99.90
31271;DHT22;17904;47.420;9.310;2022-10-22T17:21:16;13.40;99.90
31271;DHT22;17904;47.420;9.310;2022-10-22T17:23:44;13.40;99.90
31271;DHT22;17904;47.420;9.310;2022-10-22T17:26:15;13.40;99.90
31271;DHT22;17904;47.420;9.310;2022-10-22T17:28:43;13.30;99.90